Nakhon Ratchasima, Thailand
Current Conditions -  °F | °C
As of 11:00 AM on Wednesday 28 Jan 2015 (Local Time) from VTUK Reporting Station
Haze Haze  
Wind Chill: 84°   Ceiling: Unl
Heat Index: 84°   Visibility: 3mi
Dew Point: 55°   Wind: 3mph
Humidity: 37%   Direction: NA
Pressure: 29.91"   Gusts: NA
Location:  15°N, 102.1°E
Report Text: VTUK 280400Z VRB03KT 5000 HZ NSC29/13 Q1013 A2993RWY03 INFOG
Loading
Personal Weather Stations






























Interactive Weather Map New forecast layout! Learn more

10-Day Weather Forecast

Advertisements
Track Severe Weather on mobile